Time;durP1;ratioP1;P1;durP2;ratioP2;P2;SDS_P1;SDS_P2;PMS_P1;PMS_P2;Temp;Humidity;BMP_temperature;BMP_pressure;BME280_temperature;BME280_humidity;BME280_pressure;Samples;Min_cycle;Max_cycle;Signal;HPM_P1;HPM_P2
2021/05/24 00:00:59;;;;;;;;;;;15.70;99.90;;;;;;5094649;28;19908;-71
2021/05/24 00:03:26;;;;;;;;;;;15.70;99.90;;;;;;5094799;28;20371;-70
2021/05/24 00:05:52;;;;;;;;;;;15.80;99.90;;;;;;5094653;28;20270;-69
2021/05/24 00:08:19;;;;;;;;;;;15.80;99.90;;;;;;5094653;28;19908;-70
2021/05/24 00:10:47;;;;;;;;;;;15.90;99.90;;;;;;5094455;28;19942;-70
2021/05/24 00:13:15;;;;;;;;;;;16.00;99.90;;;;;;5094509;28;20018;-68
2021/05/24 00:15:43;;;;;;;;;;;16.00;99.90;;;;;;5094616;28;19912;-69
2021/05/24 00:18:10;;;;;;;;;;;16.00;99.90;;;;;;5094488;28;20029;-68
2021/05/24 00:20:39;;;;;;;;;;;16.00;99.90;;;;;;5094496;28;19909;-68
2021/05/24 00:23:05;;;;;;;;;;;16.00;99.90;;;;;;5094057;28;19946;-68
2021/05/24 00:25:32;;;;;;;;;;;16.00;99.90;;;;;;5093320;28;20003;-68
2021/05/24 00:28:00;;;;;;;;;;;16.00;99.90;;;;;;5094282;28;19909;-69
2021/05/24 00:30:32;;;;;;;;;;;16.10;99.90;;;;;;5094350;28;19908;-70
2021/05/24 00:32:59;;;;;;;;;;;16.10;99.90;;;;;;5094043;28;20019;-68
2021/05/24 00:35:26;;;;;;;;;;;16.10;99.90;;;;;;5092684;28;19908;-69
2021/05/24 00:37:53;;;;;;;;;;;16.10;99.90;;;;;;5094294;28;20366;-67
2021/05/24 00:40:19;;;;;;;;;;;16.10;99.90;;;;;;5094135;28;19908;-71
2021/05/24 00:42:46;;;;;;;;;;;16.20;99.90;;;;;;5093566;28;19913;-69
2021/05/24 00:45:13;;;;;;;;;;;16.20;99.90;;;;;;5094116;28;19915;-70
2021/05/24 00:47:40;;;;;;;;;;;16.20;99.90;;;;;;5094119;28;19908;-69
2021/05/24 00:50:07;;;;;;;;;;;16.20;99.90;;;;;;5093761;28;19954;-69
2021/05/24 00:52:34;;;;;;;;;;;16.30;99.90;;;;;;5093913;28;19922;-71
2021/05/24 00:55:01;;;;;;;;;;;16.30;99.90;;;;;;5093741;28;19908;-71
2021/05/24 00:57:28;;;;;;;;;;;16.30;99.90;;;;;;5093895;28;19922;-69
2021/05/24 00:59:55;;;;;;;;;;;16.30;99.90;;;;;;5093772;28;19908;-70
2021/05/24 01:02:22;;;;;;;;;;;16.20;99.90;;;;;;5093731;28;19912;-69
2021/05/24 01:04:48;;;;;;;;;;;16.20;99.90;;;;;;5093519;28;20362;-72
2021/05/24 01:07:15;;;;;;;;;;;16.20;99.90;;;;;;5093743;28;19977;-71
2021/05/24 01:09:42;;;;;;;;;;;16.30;99.90;;;;;;5093643;28;20323;-71
2021/05/24 01:12:09;;;;;;;;;;;16.20;99.90;;;;;;5093499;28;19919;-70
2021/05/24 01:14:36;;;;;;;;;;;16.20;99.90;;;;;;5093548;28;19916;-70
2021/05/24 01:17:03;;;;;;;;;;;16.20;99.90;;;;;;5093432;28;20216;-72
2021/05/24 01:19:29;;;;;;;;;;;16.20;99.90;;;;;;5093469;28;19976;-70
2021/05/24 01:21:56;;;;;;;;;;;16.20;99.90;;;;;;5093407;28;19959;-71
2021/05/24 01:24:23;;;;;;;;;;;16.20;99.90;;;;;;5093603;28;20271;-71
2021/05/24 01:26:49;;;;;;;;;;;16.20;99.90;;;;;;5093204;28;19915;-71
2021/05/24 01:29:19;;;;;;;;;;;16.20;99.90;;;;;;5093207;28;19999;-69
2021/05/24 01:31:46;;;;;;;;;;;16.20;99.90;;;;;;5093241;28;19919;-71
2021/05/24 01:34:13;;;;;;;;;;;16.20;99.90;;;;;;5093246;28;19916;-72
2021/05/24 01:36:40;;;;;;;;;;;16.20;99.90;;;;;;5092868;28;20007;-71
2021/05/24 01:39:07;;;;;;;;;;;16.20;99.90;;;;;;5093042;28;19909;-73
2021/05/24 01:41:35;;;;;;;;;;;16.10;99.90;;;;;;5093303;28;19915;-74
2021/05/24 01:44:01;;;;;;;;;;;16.10;99.90;;;;;;5092869;28;19920;-72
2021/05/24 01:46:28;;;;;;;;;;;16.00;99.90;;;;;;5093244;28;19994;-71
2021/05/24 01:48:55;;;;;;;;;;;16.00;99.90;;;;;;5091625;28;19912;-74
2021/05/24 01:51:21;;;;;;;;;;;15.90;99.90;;;;;;5092899;28;20010;-74
2021/05/24 01:53:48;;;;;;;;;;;15.90;99.90;;;;;;5092960;28;20001;-73
2021/05/24 01:56:15;;;;;;;;;;;15.80;99.90;;;;;;5092922;28;20389;-74
2021/05/24 01:58:41;;;;;;;;;;;15.80;99.90;;;;;;5092785;28;20411;-70
2021/05/24 02:01:11;;;;;;;;;;;15.70;99.90;;;;;;5092569;28;19912;-71
2021/05/24 02:03:38;;;;;;;;;;;15.60;99.90;;;;;;5092999;28;19915;-73
2021/05/24 02:06:05;;;;;;;;;;;15.70;99.90;;;;;;5092905;28;19953;-73
2021/05/24 02:08:32;;;;;;;;;;;15.70;99.90;;;;;;5093109;28;19981;-73
2021/05/24 02:11:00;;;;;;;;;;;15.80;99.90;;;;;;5092832;28;19909;-73
2021/05/24 02:13:28;;;;;;;;;;;15.80;99.90;;;;;;5092704;28;19916;-71
2021/05/24 02:15:55;;;;;;;;;;;15.80;99.90;;;;;;5092951;28;19908;-71
2021/05/24 02:18:22;;;;;;;;;;;15.70;99.90;;;;;;5092870;28;19912;-72
2021/05/24 02:20:49;;;;;;;;;;;15.70;99.90;;;;;;5092429;28;20271;-73
2021/05/24 02:23:16;;;;;;;;;;;15.70;99.90;;;;;;5092833;28;19912;-72
2021/05/24 02:25:43;;;;;;;;;;;15.60;99.90;;;;;;5092706;28;20018;-73
2021/05/24 02:28:10;;;;;;;;;;;15.60;99.90;;;;;;5092783;28;19909;-72
2021/05/24 02:30:36;;;;;;;;;;;15.60;99.90;;;;;;5092735;28;19908;-71
2021/05/24 02:33:03;;;;;;;;;;;15.60;99.90;;;;;;5092612;28;19987;-73
2021/05/24 02:35:30;;;;;;;;;;;15.60;99.90;;;;;;5092434;28;20132;-73
2021/05/24 02:37:57;;;;;;;;;;;15.60;99.90;;;;;;5092792;28;19908;-71
2021/05/24 02:40:25;;;;;;;;;;;15.70;99.90;;;;;;5092580;28;19969;-72
2021/05/24 02:42:51;;;;;;;;;;;15.70;99.90;;;;;;5092343;28;19938;-71
2021/05/24 02:45:19;;;;;;;;;;;15.80;99.90;;;;;;5092587;28;19916;-71
2021/05/24 02:47:46;;;;;;;;;;;15.80;99.90;;;;;;5092827;28;19908;-72
2021/05/24 02:50:14;;;;;;;;;;;15.90;99.90;;;;;;5096121;28;19954;-71
2021/05/24 02:52:41;;;;;;;;;;;16.00;99.90;;;;;;5096117;28;19916;-73
2021/05/24 02:55:08;;;;;;;;;;;16.00;99.90;;;;;;5095954;28;19953;-71
2021/05/24 02:57:35;;;;;;;;;;;16.00;99.90;;;;;;5096330;28;19977;-72
2021/05/24 03:00:03;;;;;;;;;;;16.00;99.90;;;;;;5096180;28;19935;-71
2021/05/24 03:02:30;;;;;;;;;;;16.00;99.90;;;;;;5096155;28;20254;-70
2021/05/24 03:04:57;;;;;;;;;;;15.90;99.90;;;;;;5095861;28;19930;-72
2021/05/24 03:07:24;;;;;;;;;;;16.00;99.90;;;;;;5096146;28;19977;-73
2021/05/24 03:09:50;;;;;;;;;;;16.00;99.90;;;;;;5095902;28;20378;-70
2021/05/24 03:12:17;;;;;;;;;;;16.00;99.90;;;;;;5095857;28;19919;-73
2021/05/24 03:14:44;;;;;;;;;;;16.10;99.90;;;;;;5095762;28;19912;-72
2021/05/24 03:17:10;;;;;;;;;;;16.10;99.90;;;;;;5095842;28;20046;-72
2021/05/24 03:19:37;;;;;;;;;;;16.30;99.90;;;;;;5095548;28;19908;-71
2021/05/24 03:22:04;;;;;;;;;;;16.30;99.90;;;;;;5095745;28;19915;-70
2021/05/24 03:24:31;;;;;;;;;;;16.40;99.90;;;;;;5095521;28;19918;-70
2021/05/24 03:27:00;;;;;;;;;;;16.40;99.90;;;;;;5095184;28;19908;-70
2021/05/24 03:29:27;;;;;;;;;;;16.50;99.90;;;;;;5095615;28;20339;-71
2021/05/24 03:31:54;;;;;;;;;;;16.50;99.90;;;;;;5095516;28;20003;-70
2021/05/24 03:34:20;;;;;;;;;;;16.50;99.90;;;;;;5095519;28;19955;-69
2021/05/24 03:36:47;;;;;;;;;;;16.50;99.90;;;;;;5095249;28;19908;-69
2021/05/24 03:39:14;;;;;;;;;;;16.40;99.90;;;;;;5095293;28;19912;-70
2021/05/24 03:41:40;;;;;;;;;;;16.50;99.90;;;;;;5095423;28;19908;-68
2021/05/24 03:44:07;;;;;;;;;;;16.40;99.90;;;;;;5095193;28;20286;-71
2021/05/24 03:46:34;;;;;;;;;;;16.50;99.90;;;;;;5095283;28;20351;-71
2021/05/24 03:49:02;;;;;;;;;;;16.50;99.90;;;;;;5094862;28;20002;-70
2021/05/24 03:51:28;;;;;;;;;;;16.50;99.90;;;;;;5095179;28;19931;-71
2021/05/24 03:53:55;;;;;;;;;;;16.60;99.90;;;;;;5094807;28;19921;-70
2021/05/24 03:56:22;;;;;;;;;;;16.80;99.90;;;;;;5095133;28;19912;-72
2021/05/24 03:58:48;;;;;;;;;;;17.00;99.90;;;;;;5094503;28;19908;-72
2021/05/24 04:01:15;;;;;;;;;;;17.10;99.90;;;;;;5095005;28;19915;-71
2021/05/24 04:03:42;;;;;;;;;;;17.10;99.90;;;;;;5094776;28;20358;-72
2021/05/24 04:06:11;;;;;;;;;;;17.10;99.90;;;;;;5094642;28;19908;-71
2021/05/24 04:08:47;;;;;;;;;;;17.10;99.90;;;;;;5094750;28;20282;-72
2021/05/24 04:11:14;;;;;;;;;;;17.10;99.90;;;;;;5094751;28;20017;-72
2021/05/24 04:13:46;;;;;;;;;;;17.20;99.90;;;;;;5094507;28;19961;-72
2021/05/24 04:16:13;;;;;;;;;;;17.10;99.90;;;;;;5094687;28;19952;-73
2021/05/24 04:18:46;;;;;;;;;;;17.10;99.90;;;;;;5094283;28;19908;-71
2021/05/24 04:21:13;;;;;;;;;;;17.10;99.90;;;;;;5094664;28;19912;-70
2021/05/24 04:23:40;;;;;;;;;;;17.20;99.90;;;;;;5094569;28;19961;-70
2021/05/24 04:26:07;;;;;;;;;;;17.20;99.90;;;;;;5094548;28;19920;-72
2021/05/24 04:28:34;;;;;;;;;;;17.20;99.90;;;;;;5094342;28;19953;-71
2021/05/24 04:31:01;;;;;;;;;;;17.20;99.90;;;;;;5094248;28;19908;-71
2021/05/24 04:33:28;;;;;;;;;;;17.10;99.90;;;;;;5094183;28;20010;-70
2021/05/24 04:35:54;;;;;;;;;;;17.10;99.90;;;;;;5094313;28;19908;-72
2021/05/24 04:38:21;;;;;;;;;;;17.10;99.90;;;;;;5094378;28;19908;-72
2021/05/24 04:40:48;;;;;;;;;;;17.00;99.90;;;;;;5093775;28;19908;-70
2021/05/24 04:43:15;;;;;;;;;;;16.90;99.90;;;;;;5093719;28;19920;-72
2021/05/24 04:45:41;;;;;;;;;;;16.90;99.90;;;;;;5094059;28;19966;-71
2021/05/24 04:48:08;;;;;;;;;;;17.00;99.90;;;;;;5094061;28;20412;-70
2021/05/24 04:50:35;;;;;;;;;;;17.00;99.90;;;;;;5093960;28;19908;-70
2021/05/24 04:53:02;;;;;;;;;;;17.00;99.90;;;;;;5093669;28;20006;-73
2021/05/24 04:55:29;;;;;;;;;;;16.90;99.90;;;;;;5093841;28;19908;-72
2021/05/24 04:57:55;;;;;;;;;;;17.00;99.90;;;;;;5093706;28;19964;-72
2021/05/24 05:00:22;;;;;;;;;;;17.00;99.90;;;;;;5093766;28;20340;-73
2021/05/24 05:02:49;;;;;;;;;;;17.00;99.90;;;;;;5093555;28;19908;-72
2021/05/24 05:05:15;;;;;;;;;;;17.00;99.90;;;;;;5093490;28;20269;-70
2021/05/24 05:07:42;;;;;;;;;;;17.10;99.90;;;;;;5093593;28;19919;-71
2021/05/24 05:10:09;;;;;;;;;;;17.00;99.90;;;;;;5093447;28;19915;-70
2021/05/24 05:12:36;;;;;;;;;;;17.10;99.90;;;;;;5093156;28;19916;-70
2021/05/24 05:15:03;;;;;;;;;;;17.00;99.90;;;;;;5093397;28;19991;-70
2021/05/24 05:17:29;;;;;;;;;;;17.00;99.90;;;;;;5093404;28;19908;-70
2021/05/24 05:19:56;;;;;;;;;;;17.10;99.90;;;;;;5093297;28;19955;-72
2021/05/24 05:22:23;;;;;;;;;;;17.00;99.90;;;;;;5093299;28;20347;-72
2021/05/24 05:24:49;;;;;;;;;;;17.00;99.90;;;;;;5093395;28;19916;-74
2021/05/24 05:27:16;;;;;;;;;;;17.00;99.90;;;;;;5092935;28;20359;-72
2021/05/24 05:29:43;;;;;;;;;;;17.00;99.90;;;;;;5093102;28;19958;-73
2021/05/24 05:32:09;;;;;;;;;;;17.00;99.90;;;;;;5093235;28;19953;-72
2021/05/24 05:34:36;;;;;;;;;;;16.90;99.90;;;;;;5093000;28;20282;-71
2021/05/24 05:37:03;;;;;;;;;;;16.90;99.90;;;;;;5093017;28;20335;-71
2021/05/24 05:39:29;;;;;;;;;;;16.90;99.90;;;;;;5093059;28;19908;-73
2021/05/24 05:41:56;;;;;;;;;;;17.00;99.90;;;;;;5093130;28;19970;-72
2021/05/24 05:44:23;;;;;;;;;;;17.00;99.90;;;;;;5093017;28;19920;-68
2021/05/24 05:46:49;;;;;;;;;;;17.10;99.90;;;;;;5091436;28;20275;-71
2021/05/24 05:49:16;;;;;;;;;;;17.00;99.90;;;;;;5092912;28;19967;-70
2021/05/24 05:51:43;;;;;;;;;;;17.00;99.90;;;;;;5092797;28;19908;-69
2021/05/24 05:54:09;;;;;;;;;;;17.00;99.90;;;;;;5092881;28;19917;-71
2021/05/24 05:56:36;;;;;;;;;;;16.90;99.90;;;;;;5092830;28;19908;-71
2021/05/24 05:59:03;;;;;;;;;;;16.90;99.90;;;;;;5092893;28;20059;-70
2021/05/24 06:01:30;;;;;;;;;;;16.80;99.90;;;;;;5092857;28;19908;-71
2021/05/24 06:03:57;;;;;;;;;;;16.70;99.90;;;;;;5092676;28;19954;-69
2021/05/24 06:06:24;;;;;;;;;;;16.60;99.90;;;;;;5092829;28;19912;-71
2021/05/24 06:08:51;;;;;;;;;;;16.50;99.90;;;;;;5092394;28;19908;-71
2021/05/24 06:11:17;;;;;;;;;;;16.40;99.90;;;;;;5092746;28;19912;-71
2021/05/24 06:13:44;;;;;;;;;;;16.40;99.90;;;;;;5092751;28;19923;-68
2021/05/24 06:16:13;;;;;;;;;;;16.30;99.90;;;;;;5092624;28;19908;-70
2021/05/24 06:18:39;;;;;;;;;;;16.20;99.90;;;;;;5092619;28;19927;-69
2021/05/24 06:21:06;;;;;;;;;;;16.20;99.90;;;;;;5092443;28;19953;-70
2021/05/24 06:23:32;;;;;;;;;;;16.20;99.90;;;;;;5095939;28;19931;-69
2021/05/24 06:25:59;;;;;;;;;;;16.20;99.90;;;;;;5096588;28;19915;-67
2021/05/24 06:28:26;;;;;;;;;;;16.10;99.90;;;;;;5096605;28;19958;-68
2021/05/24 06:30:53;;;;;;;;;;;16.10;99.90;;;;;;5096571;28;19919;-72
2021/05/24 06:33:19;;;;;;;;;;;16.10;99.90;;;;;;5097021;28;20255;-71
2021/05/24 06:35:47;;;;;;;;;;;16.10;99.90;;;;;;5096517;28;20255;-70
2021/05/24 06:38:14;;;;;;;;;;;16.10;99.90;;;;;;5096767;28;19980;-72
2021/05/24 06:40:40;;;;;;;;;;;16.10;99.90;;;;;;5096904;28;19908;-70
2021/05/24 06:43:07;;;;;;;;;;;16.10;99.90;;;;;;5096569;28;19916;-70
2021/05/24 06:45:34;;;;;;;;;;;16.10;99.90;;;;;;5096859;28;19908;-69
2021/05/24 06:48:00;;;;;;;;;;;16.10;99.90;;;;;;5096309;28;20358;-68
2021/05/24 06:50:27;;;;;;;;;;;16.00;99.90;;;;;;5096225;28;19908;-72
2021/05/24 06:52:54;;;;;;;;;;;16.10;99.90;;;;;;5095905;28;20358;-71
2021/05/24 06:55:20;;;;;;;;;;;16.20;99.90;;;;;;5096203;28;20351;-71
2021/05/24 06:57:47;;;;;;;;;;;16.20;99.90;;;;;;5096299;28;20341;-68
2021/05/24 07:00:14;;;;;;;;;;;16.10;99.90;;;;;;5096089;28;19931;-70
2021/05/24 07:02:42;;;;;;;;;;;16.10;99.90;;;;;;5095864;28;19908;-71
2021/05/24 07:05:09;;;;;;;;;;;16.10;99.90;;;;;;5095998;28;19908;-70
2021/05/24 07:07:36;;;;;;;;;;;16.10;99.90;;;;;;5095859;28;19908;-71
2021/05/24 07:10:07;;;;;;;;;;;16.10;99.90;;;;;;5095771;28;20019;-71
2021/05/24 07:12:34;;;;;;;;;;;16.10;99.90;;;;;;5095721;28;19919;-71
2021/05/24 07:15:03;;;;;;;;;;;16.10;99.90;;;;;;5095655;28;19912;-70
2021/05/24 07:17:30;;;;;;;;;;;16.10;99.90;;;;;;5095515;28;19977;-69
2021/05/24 07:19:57;;;;;;;;;;;16.10;99.90;;;;;;5095473;28;19934;-69
2021/05/24 07:22:24;;;;;;;;;;;16.10;99.90;;;;;;5095589;28;19908;-69
2021/05/24 07:24:53;;;;;;;;;;;16.20;99.90;;;;;;5095203;28;19943;-71
2021/05/24 07:27:19;;;;;;;;;;;16.10;99.90;;;;;;5095558;28;19910;-71
2021/05/24 07:29:46;;;;;;;;;;;16.10;99.90;;;;;;5095372;28;19908;-71
2021/05/24 07:32:13;;;;;;;;;;;16.10;99.90;;;;;;5095168;28;20312;-69
2021/05/24 07:34:40;;;;;;;;;;;16.10;99.90;;;;;;5093321;28;20290;-72
2021/05/24 07:37:07;;;;;;;;;;;16.00;99.90;;;;;;5095183;28;19970;-70
2021/05/24 07:39:34;;;;;;;;;;;16.10;99.90;;;;;;5095112;28;20355;-71
2021/05/24 07:42:02;;;;;;;;;;;16.10;99.90;;;;;;5092438;28;20007;-72
2021/05/24 07:44:29;;;;;;;;;;;16.10;99.90;;;;;;5093117;28;19927;-73
2021/05/24 07:46:57;;;;;;;;;;;16.10;99.90;;;;;;5092875;28;19915;-70
2021/05/24 07:49:23;;;;;;;;;;;16.20;99.90;;;;;;5086912;28;19991;-72
2021/05/24 07:51:50;;;;;;;;;;;16.10;99.90;;;;;;5093114;28;19915;-73
2021/05/24 07:54:18;;;;;;;;;;;16.10;99.90;;;;;;5092953;28;20002;-71
2021/05/24 07:56:44;;;;;;;;;;;16.10;99.90;;;;;;5092614;28;19908;-72
2021/05/24 07:59:13;;;;;;;;;;;16.10;99.90;;;;;;5092786;28;20346;-72
2021/05/24 08:01:40;;;;;;;;;;;16.10;99.90;;;;;;5092445;28;19912;-72
2021/05/24 08:04:07;;;;;;;;;;;16.10;99.90;;;;;;5090877;28;19918;-72
2021/05/24 08:06:33;;;;;;;;;;;16.20;99.90;;;;;;5092562;28;19918;-73
2021/05/24 08:09:00;;;;;;;;;;;16.20;99.90;;;;;;5092469;28;19962;-71
2021/05/24 08:11:27;;;;;;;;;;;16.30;99.90;;;;;;5092303;28;19912;-68
2021/05/24 08:13:54;;;;;;;;;;;16.30;99.90;;;;;;5092274;28;19916;-71
2021/05/24 08:16:21;;;;;;;;;;;16.30;99.90;;;;;;5092177;28;20011;-69
2021/05/24 08:18:48;;;;;;;;;;;16.30;99.90;;;;;;5092315;28;20297;-69
2021/05/24 08:21:15;;;;;;;;;;;16.40;99.90;;;;;;5092624;28;19908;-70
2021/05/24 08:23:45;;;;;;;;;;;16.40;99.90;;;;;;5092518;28;19908;-70
2021/05/24 08:26:11;;;;;;;;;;;16.40;99.90;;;;;;5092477;28;19908;-70
2021/05/24 08:28:38;;;;;;;;;;;16.30;99.90;;;;;;5091773;28;20362;-69
2021/05/24 08:31:06;;;;;;;;;;;16.30;99.90;;;;;;5092062;28;19909;-71
2021/05/24 08:33:32;;;;;;;;;;;16.30;99.90;;;;;;5092062;28;19974;-70
2021/05/24 08:35:59;;;;;;;;;;;16.20;99.90;;;;;;5092211;28;19908;-72
2021/05/24 08:38:26;;;;;;;;;;;16.20;99.90;;;;;;5092158;28;19962;-71
2021/05/24 08:40:53;;;;;;;;;;;16.30;99.90;;;;;;5091530;28;19908;-70
2021/05/24 08:43:20;;;;;;;;;;;16.20;99.90;;;;;;5091665;28;20378;-71
2021/05/24 08:45:46;;;;;;;;;;;16.20;99.90;;;;;;5090988;28;19912;-71
2021/05/24 08:48:13;;;;;;;;;;;16.10;99.90;;;;;;5091825;28;19920;-71
2021/05/24 08:50:41;;;;;;;;;;;16.10;99.90;;;;;;5091843;28;19912;-70
2021/05/24 08:53:08;;;;;;;;;;;16.10;99.90;;;;;;5091607;28;19920;-69
2021/05/24 08:55:35;;;;;;;;;;;16.10;99.90;;;;;;5090041;28;19915;-71
2021/05/24 08:58:02;;;;;;;;;;;16.00;99.90;;;;;;5091724;28;19948;-70
2021/05/24 09:00:29;;;;;;;;;;;16.00;99.90;;;;;;5091998;28;19916;-69
2021/05/24 09:02:57;;;;;;;;;;;16.00;99.90;;;;;;5091493;28;19923;-70
2021/05/24 09:05:31;;;;;;;;;;;16.00;99.90;;;;;;5092728;28;20051;-70
2021/05/24 09:07:59;;;;;;;;;;;16.00;99.90;;;;;;5093696;28;19917;-71
2021/05/24 09:10:28;;;;;;;;;;;16.00;99.90;;;;;;5093682;28;19958;-70
2021/05/24 09:12:55;;;;;;;;;;;16.00;99.90;;;;;;5093391;28;20366;-71
2021/05/24 09:15:23;;;;;;;;;;;16.00;99.90;;;;;;5093741;28;19915;-70
2021/05/24 09:17:52;;;;;;;;;;;16.00;99.90;;;;;;5093539;28;19908;-71
2021/05/24 09:20:24;;;;;;;;;;;15.90;99.90;;;;;;5093294;28;19908;-72
2021/05/24 09:23:10;;;;;;;;;;;15.80;99.90;;;;;;5093350;28;20274;-71
2021/05/24 09:25:54;;;;;;;;;;;15.70;99.90;;;;;;5093312;28;19915;-72
2021/05/24 09:28:37;;;;;;;;;;;15.60;99.90;;;;;;5093489;28;19908;-72
2021/05/24 09:31:06;;;;;;;;;;;15.60;99.90;;;;;;5093116;28;19939;-72
2021/05/24 09:33:32;;;;;;;;;;;15.60;99.90;;;;;;5092841;28;19959;-71
2021/05/24 09:35:59;;;;;;;;;;;15.50;99.90;;;;;;5092053;28;19908;-71
2021/05/24 09:38:32;;;;;;;;;;;15.50;99.90;;;;;;5093052;28;19985;-70
2021/05/24 09:41:00;;;;;;;;;;;15.50;99.90;;;;;;5093002;28;19908;-72
2021/05/24 09:43:30;;;;;;;;;;;15.50;99.90;;;;;;5092949;28;19962;-71
2021/05/24 09:46:14;;;;;;;;;;;15.50;99.90;;;;;;5093127;28;19915;-71
2021/05/24 09:48:41;;;;;;;;;;;15.40;99.90;;;;;;5093005;28;19942;-72
2021/05/24 09:51:08;;;;;;;;;;;15.50;99.90;;;;;;5093042;28;19930;-72
2021/05/24 09:53:36;;;;;;;;;;;15.50;99.90;;;;;;5092889;28;19922;-72
2021/05/24 09:56:03;;;;;;;;;;;15.50;99.90;;;;;;5092302;28;19912;-73
2021/05/24 09:58:30;;;;;;;;;;;15.50;99.90;;;;;;5083365;28;20004;-71
2021/05/24 10:01:19;;;;;;;;;;;15.50;99.90;;;;;;5079146;28;20382;-72
2021/05/24 10:03:44;;;;;;;;;;;15.60;99.90;;;;;;5079076;28;20358;-72
2021/05/24 10:06:11;;;;;;;;;;;15.60;99.90;;;;;;5078800;28;19909;-71
2021/05/24 10:08:39;;;;;;;;;;;15.60;99.90;;;;;;5079284;28;19947;-71
2021/05/24 10:11:06;;;;;;;;;;;15.60;99.90;;;;;;5079353;28;19978;-72
2021/05/24 10:13:33;;;;;;;;;;;15.60;99.90;;;;;;5090870;28;19931;-71
2021/05/24 10:16:01;;;;;;;;;;;15.70;99.90;;;;;;5079084;28;19908;-70
2021/05/24 10:18:29;;;;;;;;;;;15.70;99.90;;;;;;5079229;27;19916;-69
2021/05/24 10:20:57;;;;;;;;;;;15.80;99.90;;;;;;5075247;28;19939;-70
2021/05/24 10:23:24;;;;;;;;;;;15.80;99.90;;;;;;5076475;28;19912;-70
2021/05/24 10:25:52;;;;;;;;;;;15.80;99.90;;;;;;5077178;28;19947;-71
2021/05/24 10:28:22;;;;;;;;;;;15.80;99.90;;;;;;5077467;28;20333;-69
2021/05/24 10:30:49;;;;;;;;;;;15.80;99.90;;;;;;5076813;28;19919;-73
2021/05/24 10:33:15;;;;;;;;;;;15.80;99.90;;;;;;5076905;28;19927;-72
2021/05/24 10:35:46;;;;;;;;;;;15.80;99.90;;;;;;5083254;28;19920;-68
2021/05/24 10:38:28;;;;;;;;;;;15.80;99.90;;;;;;5107882;28;19955;-69
2021/05/24 10:41:09;;;;;;;;;;;15.70;99.90;;;;;;5107446;28;20029;-68
2021/05/24 10:43:39;;;;;;;;;;;15.70;99.90;;;;;;5111479;28;19932;-68
2021/05/24 10:46:24;;;;;;;;;;;15.60;99.90;;;;;;5109558;28;19936;-72
2021/05/24 10:49:03;;;;;;;;;;;15.60;99.90;;;;;;5103901;28;20031;-71
2021/05/24 10:51:52;;;;;;;;;;;15.60;99.90;;;;;;5108828;28;20372;-72
2021/05/24 10:54:21;;;;;;;;;;;15.60;99.90;;;;;;5117624;27;19919;-70
2021/05/24 10:56:51;;;;;;;;;;;15.70;99.90;;;;;;5117310;27;19908;-69
2021/05/24 10:59:43;;;;;;;;;;;15.80;99.90;;;;;;5116753;27;19908;-69
2021/05/24 11:02:15;;;;;;;;;;;15.80;99.90;;;;;;5116562;27;20452;-72
2021/05/24 11:04:54;;;;;;;;;;;15.90;99.90;;;;;;5116476;27;19912;-71
2021/05/24 11:07:24;;;;;;;;;;;16.00;99.90;;;;;;5116823;28;19915;-72
2021/05/24 11:09:52;;;;;;;;;;;15.90;99.90;;;;;;5113314;27;19914;-70
2021/05/24 11:12:31;;;;;;;;;;;15.90;99.90;;;;;;5113540;28;19919;-71
2021/05/24 11:15:08;;;;;;;;;;;15.80;99.90;;;;;;5113230;28;19923;-71
2021/05/24 11:17:53;;;;;;;;;;;15.80;99.90;;;;;;5113547;28;19915;-71
2021/05/24 11:20:28;;;;;;;;;;;15.70;99.90;;;;;;5113074;28;19963;-70
2021/05/24 11:23:31;;;;;;;;;;;15.70;99.90;;;;;;5112121;28;20381;-70
2021/05/24 11:26:14;;;;;;;;;;;15.70;99.90;;;;;;5113557;28;20420;-70
2021/05/24 11:28:42;;;;;;;;;;;15.70;99.90;;;;;;5113047;28;20538;-71
2021/05/24 11:31:16;;;;;;;;;;;15.80;99.90;;;;;;5113459;28;19952;-71
2021/05/24 11:33:42;;;;;;;;;;;15.80;99.90;;;;;;5112914;28;19920;-69
2021/05/24 11:36:11;;;;;;;;;;;15.80;99.90;;;;;;5113092;28;19912;-71
2021/05/24 11:38:37;;;;;;;;;;;15.80;99.90;;;;;;5113488;28;19912;-72
2021/05/24 11:41:07;;;;;;;;;;;15.80;99.90;;;;;;5104223;28;20256;-70
2021/05/24 11:43:34;;;;;;;;;;;15.80;99.90;;;;;;5092817;28;20295;-71
2021/05/24 11:46:05;;;;;;;;;;;15.80;99.90;;;;;;5093428;28;19908;-69
2021/05/24 11:48:50;;;;;;;;;;;15.70;99.90;;;;;;5092565;28;20332;-71
2021/05/24 11:51:17;;;;;;;;;;;15.80;99.90;;;;;;5104204;28;19951;-72
2021/05/24 11:54:02;;;;;;;;;;;15.70;99.90;;;;;;5101193;28;20031;-70
2021/05/24 11:56:36;;;;;;;;;;;15.70;99.90;;;;;;5105105;28;19918;-71
2021/05/24 11:59:05;;;;;;;;;;;15.70;99.90;;;;;;5102733;28;19907;-69
2021/05/24 12:01:33;;;;;;;;;;;15.60;99.90;;;;;;5107988;28;19924;-69
2021/05/24 12:04:04;;;;;;;;;;;15.60;99.90;;;;;;5101268;28;19908;-70
2021/05/24 12:06:39;;;;;;;;;;;15.60;99.90;;;;;;5104662;28;19952;-69
2021/05/24 12:09:06;;;;;;;;;;;15.60;99.90;;;;;;5106690;28;20421;-68
2021/05/24 12:11:34;;;;;;;;;;;15.60;99.90;;;;;;5106337;28;19960;-69
2021/05/24 12:14:05;;;;;;;;;;;15.60;99.90;;;;;;5105945;28;19916;-71
2021/05/24 12:16:32;;;;;;;;;;;15.60;99.90;;;;;;5110137;28;19915;-71
2021/05/24 12:18:59;;;;;;;;;;;15.60;99.90;;;;;;5099867;28;19955;-72
2021/05/24 12:21:40;;;;;;;;;;;15.70;99.90;;;;;;5102257;28;19963;-71
2021/05/24 12:24:10;;;;;;;;;;;15.70;99.90;;;;;;5099010;28;19912;-72
2021/05/24 12:26:38;;;;;;;;;;;15.60;99.90;;;;;;5098857;28;19912;-71
2021/05/24 12:29:08;;;;;;;;;;;15.60;99.90;;;;;;5093001;28;20331;-72
2021/05/24 12:31:35;;;;;;;;;;;15.50;99.90;;;;;;5092644;28;19951;-71
2021/05/24 12:34:02;;;;;;;;;;;15.40;99.90;;;;;;5091575;28;19927;-71
2021/05/24 12:36:55;;;;;;;;;;;15.40;99.90;;;;;;5099702;28;20036;-71
2021/05/24 12:39:22;;;;;;;;;;;15.40;99.90;;;;;;5091716;28;20057;-72
2021/05/24 12:41:50;;;;;;;;;;;15.30;99.90;;;;;;5092138;28;19909;-71
2021/05/24 12:44:22;;;;;;;;;;;15.20;99.90;;;;;;5092285;28;19927;-70
2021/05/24 12:46:49;;;;;;;;;;;15.30;99.90;;;;;;5091668;28;19908;-69
2021/05/24 12:49:16;;;;;;;;;;;15.20;99.90;;;;;;5092781;28;19976;-71
2021/05/24 12:51:44;;;;;;;;;;;15.20;99.90;;;;;;5092319;28;20015;-71
2021/05/24 12:54:11;;;;;;;;;;;15.30;99.90;;;;;;5092426;28;19916;-71
2021/05/24 12:56:39;;;;;;;;;;;15.20;99.90;;;;;;5092637;28;19931;-70
2021/05/24 12:59:26;;;;;;;;;;;15.20;99.90;;;;;;5092006;28;19959;-72
2021/05/24 13:01:54;;;;;;;;;;;15.20;99.90;;;;;;5091424;28;20006;-71
2021/05/24 13:04:21;;;;;;;;;;;15.10;99.90;;;;;;5092169;28;20608;-72
2021/05/24 13:06:50;;;;;;;;;;;15.20;99.90;;;;;;5091647;28;19919;-71
2021/05/24 13:09:30;;;;;;;;;;;15.10;99.90;;;;;;5092382;28;19994;-72
2021/05/24 13:12:04;;;;;;;;;;;15.10;99.90;;;;;;5095162;28;19920;-71
2021/05/24 13:14:37;;;;;;;;;;;15.20;99.90;;;;;;5092029;28;19920;-72
2021/05/24 13:30:37;;;;;;;;;;;15.10;99.90;;;;;;5071581;28;19913;-72
2021/05/24 13:33:23;;;;;;;;;;;15.10;99.90;;;;;;5070850;28;19916;-72
2021/05/24 13:35:50;;;;;;;;;;;15.10;99.90;;;;;;5067391;28;19912;-70
2021/05/24 13:38:17;;;;;;;;;;;15.10;99.90;;;;;;5072971;28;19982;-69
2021/05/24 13:40:44;;;;;;;;;;;15.10;99.90;;;;;;5077464;28;19954;-68
2021/05/24 13:43:10;;;;;;;;;;;15.10;99.90;;;;;;5083450;28;20020;-72
2021/05/24 13:45:38;;;;;;;;;;;15.10;99.90;;;;;;5074505;28;19913;-69
2021/05/24 13:48:05;;;;;;;;;;;15.10;99.90;;;;;;5071790;28;19953;-68
2021/05/24 13:50:32;;;;;;;;;;;15.00;99.90;;;;;;5071114;28;19912;-71
2021/05/24 13:52:58;;;;;;;;;;;15.00;99.90;;;;;;5070878;28;19916;-69
2021/05/24 13:55:25;;;;;;;;;;;14.90;99.90;;;;;;5071042;28;19920;-68
2021/05/24 13:57:53;;;;;;;;;;;14.90;99.90;;;;;;5070947;28;19919;-69
2021/05/24 14:00:28;;;;;;;;;;;14.90;99.90;;;;;;5070705;28;19909;-68
2021/05/24 14:02:55;;;;;;;;;;;14.90;99.90;;;;;;5070777;28;19915;-69
2021/05/24 14:05:21;;;;;;;;;;;14.90;99.90;;;;;;5070571;28;19916;-70
2021/05/24 14:07:48;;;;;;;;;;;14.80;99.90;;;;;;5070973;28;19909;-69
2021/05/24 14:10:16;;;;;;;;;;;14.80;99.90;;;;;;5070896;28;20098;-69
2021/05/24 14:12:44;;;;;;;;;;;14.90;99.90;;;;;;5070712;28;19916;-69
2021/05/24 14:15:11;;;;;;;;;;;14.90;99.90;;;;;;5070752;28;20377;-69
2021/05/24 14:17:41;;;;;;;;;;;14.90;99.90;;;;;;5070501;28;19917;-68
2021/05/24 14:20:09;;;;;;;;;;;14.80;99.90;;;;;;5070897;28;19919;-70
2021/05/24 14:22:39;;;;;;;;;;;14.80;99.90;;;;;;5103004;28;19948;-69
2021/05/24 14:25:06;;;;;;;;;;;14.80;99.90;;;;;;5102618;28;19919;-69
2021/05/24 14:27:33;;;;;;;;;;;14.80;99.90;;;;;;5070787;28;19913;-71
2021/05/24 14:30:00;;;;;;;;;;;14.70;99.90;;;;;;5070490;28;19909;-68
2021/05/24 14:32:26;;;;;;;;;;;14.60;99.90;;;;;;5070507;28;19913;-69
2021/05/24 14:34:53;;;;;;;;;;;14.60;99.90;;;;;;5070489;28;20036;-70
2021/05/24 14:37:19;;;;;;;;;;;14.60;99.90;;;;;;5070408;28;19912;-71